createdAt,value
2023-01-30T00:01:18.521Z,100532.36
2023-01-30T00:03:47.198Z,100528.90
2023-01-30T00:06:15.589Z,100528.05
2023-01-30T00:08:43.729Z,100522.65
2023-01-30T00:11:14.899Z,100525.82
2023-01-30T00:13:44.405Z,100515.02
2023-01-30T00:16:12.765Z,100508.05
2023-01-30T00:18:41.429Z,100507.21
2023-01-30T00:21:11.412Z,100508.80
2023-01-30T00:23:39.579Z,100514.18
2023-01-30T00:26:08.086Z,100511.96
2023-01-30T00:28:37.035Z,100510.16
2023-01-30T00:31:05.975Z,100506.39
2023-01-30T00:33:35.778Z,100502.30
2023-01-30T00:36:06.652Z,100494.08
2023-01-30T00:38:36.309Z,100491.98
2023-01-30T00:41:04.687Z,100492.04
2023-01-30T00:43:52.300Z,100497.59
2023-01-30T00:46:50.096Z,100494.04
2023-01-30T00:49:18.418Z,100493.31
2023-01-30T00:51:46.613Z,100486.13
2023-01-30T00:54:14.907Z,100484.45
2023-01-30T00:56:43.327Z,100478.58
2023-01-30T00:59:11.684Z,100476.30
2023-01-30T01:01:39.891Z,100471.69
2023-01-30T01:04:10.531Z,100469.87
2023-01-30T01:06:44.243Z,100467.23
2023-01-30T01:09:12.941Z,100460.67
2023-01-30T01:11:42.095Z,100453.50
2023-01-30T01:14:10.567Z,100450.52
2023-01-30T01:16:40.612Z,100443.94
2023-01-30T01:19:09.245Z,100442.94
2023-01-30T01:21:37.435Z,100445.84
2023-01-30T01:24:06.799Z,100440.77
2023-01-30T01:26:35.523Z,100439.69
2023-01-30T01:29:04.361Z,100440.41
2023-01-30T01:31:33.316Z,100443.65
2023-01-30T01:34:01.539Z,100440.13
2023-01-30T01:36:52.052Z,100434.12
2023-01-30T01:39:18.240Z,100431.58
2023-01-30T01:41:46.454Z,100430.80
2023-01-30T01:44:15.508Z,100428.77
2023-01-30T01:47:04.012Z,100427.80
2023-01-30T01:49:35.932Z,100425.79
2023-01-30T01:52:07.053Z,100424.32
2023-01-30T01:54:56.215Z,100423.23
2023-01-30T01:57:27.091Z,100423.55
2023-01-30T02:00:02.211Z,100427.52
2023-01-30T02:02:42.777Z,100427.08
2023-01-30T02:05:12.947Z,100422.91
2023-01-30T02:08:27.185Z,100421.13
2023-01-30T02:11:20.189Z,100416.99
2023-01-30T02:13:48.857Z,100419.98
2023-01-30T02:16:17.568Z,100419.10
2023-01-30T02:18:46.287Z,100416.88
2023-01-30T02:21:33.016Z,100418.03
2023-01-30T02:24:10.571Z,100415.39
2023-01-30T02:27:01.699Z,100412.96
2023-01-30T02:30:02.691Z,100411.25
2023-01-30T02:32:48.214Z,100405.06
2023-01-30T02:35:22.919Z,100402.43
2023-01-30T02:38:16.438Z,100394.61
2023-01-30T02:41:18.506Z,100391.59
2023-01-30T02:44:13.591Z,100392.07
2023-01-30T02:47:06.857Z,100388.52
2023-01-30T02:49:46.198Z,100378.59
2023-01-30T02:52:14.782Z,100374.96
2023-01-30T02:54:43.760Z,100366.42
2023-01-30T02:57:25.333Z,100367.34
2023-01-30T02:59:58.242Z,100363.39
2023-01-30T03:02:51.069Z,100359.30
2023-01-30T03:05:30.140Z,100358.39
2023-01-30T03:08:16.029Z,100352.77
2023-01-30T03:11:24.620Z,100355.29
2023-01-30T03:14:03.469Z,100346.34
2023-01-30T03:16:36.881Z,100350.14
2023-01-30T03:19:09.368Z,100344.71
2023-01-30T03:21:42.783Z,100347.88
2023-01-30T03:24:14.112Z,100342.04
2023-01-30T03:27:12.209Z,100334.17
2023-01-30T03:29:44.543Z,100329.27
2023-01-30T03:32:13.025Z,100333.37
2023-01-30T03:34:42.003Z,100333.54
2023-01-30T03:37:11.606Z,100333.20
2023-01-30T03:39:39.977Z,100334.01
2023-01-30T03:42:08.331Z,100335.16
2023-01-30T03:44:36.585Z,100328.06
2023-01-30T03:47:05.142Z,100323.69
2023-01-30T04:01:59.716Z,100316.23
2023-01-30T04:04:28.404Z,100307.91
2023-01-30T04:06:58.222Z,100296.21
2023-01-30T04:09:26.815Z,100297.11
2023-01-30T04:11:58.256Z,100291.75
2023-01-30T04:14:27.867Z,100290.01
2023-01-30T04:17:10.183Z,100289.52
2023-01-30T04:20:08.848Z,100289.73
2023-01-30T04:22:37.834Z,100287.30
2023-01-30T04:25:06.250Z,100289.13
2023-01-30T04:27:34.960Z,100288.86
2023-01-30T04:30:15.513Z,100288.98
2023-01-30T04:32:45.011Z,100285.42
2023-01-30T04:35:13.393Z,100285.14
2023-01-30T04:37:42.283Z,100282.66
2023-01-30T04:40:12.013Z,100287.48
2023-01-30T04:42:40.472Z,100287.85
2023-01-30T04:45:28.727Z,100288.06
2023-01-30T04:48:00.102Z,100289.08
2023-01-30T04:50:28.751Z,100288.92
2023-01-30T04:52:57.031Z,100286.93
2023-01-30T04:55:25.323Z,100288.44
2023-01-30T04:57:55.348Z,100285.53
2023-01-30T05:00:23.622Z,100281.48
2023-01-30T05:02:56.709Z,100273.46
2023-01-30T05:05:25.882Z,100272.88
2023-01-30T05:07:54.839Z,100273.48
2023-01-30T05:10:23.288Z,100278.92
2023-01-30T05:12:51.679Z,100277.67
2023-01-30T05:15:20.143Z,100273.43
2023-01-30T05:17:48.642Z,100266.13
2023-01-30T05:20:19.677Z,100260.43
2023-01-30T05:22:51.085Z,100262.53
2023-01-30T05:25:19.818Z,100257.23
2023-01-30T05:27:48.303Z,100253.83
2023-01-30T05:30:17.558Z,100252.65
2023-01-30T05:32:47.217Z,100253.30
2023-01-30T05:35:16.051Z,100249.85
2023-01-30T05:37:51.178Z,100244.41
2023-01-30T05:40:19.804Z,100239.08
2023-01-30T05:42:48.009Z,100237.73
2023-01-30T05:45:17.249Z,100232.96
2023-01-30T05:47:50.414Z,100237.58
2023-01-30T05:50:20.018Z,100229.71
2023-01-30T05:52:48.210Z,100222.58
2023-01-30T05:55:17.122Z,100221.27
2023-01-30T05:57:45.674Z,100214.95
2023-01-30T06:00:14.867Z,100217.22
2023-01-30T06:02:45.259Z,100213.61
2023-01-30T06:05:14.630Z,100218.46
2023-01-30T06:07:44.268Z,100219.41
2023-01-30T06:10:12.798Z,100219.66
2023-01-30T06:12:42.617Z,100213.23
2023-01-30T06:15:12.228Z,100213.30
2023-01-30T06:17:44.602Z,100210.75
2023-01-30T06:20:13.082Z,100209.93
2023-01-30T06:22:41.644Z,100207.09
2023-01-30T06:25:10.976Z,100206.58
2023-01-30T06:27:39.554Z,100200.63
2023-01-30T06:30:10.218Z,100201.06
2023-01-30T06:32:38.984Z,100198.21
2023-01-30T06:35:08.240Z,100200.20
2023-01-30T06:37:36.460Z,100194.59
2023-01-30T06:40:05.577Z,100187.88
2023-01-30T06:42:34.653Z,100183.38
2023-01-30T06:45:02.808Z,100181.30
2023-01-30T06:47:31.406Z,100182.39
2023-01-30T06:49:59.696Z,100178.27
2023-01-30T06:52:29.785Z,100175.09
2023-01-30T06:54:59.020Z,100171.14
2023-01-30T06:57:27.297Z,100170.30
2023-01-30T06:59:55.730Z,100172.54
2023-01-30T07:02:24.367Z,100174.33
2023-01-30T07:04:52.756Z,100171.52
2023-01-30T07:07:20.933Z,100166.80
2023-01-30T07:10:05.802Z,100168.39
2023-01-30T07:12:36.388Z,100161.05
2023-01-30T07:15:10.792Z,100159.88
2023-01-30T07:17:43.430Z,100158.10
2023-01-30T07:20:14.681Z,100157.63
2023-01-30T07:22:44.555Z,100159.67
2023-01-30T07:25:14.316Z,100154.89
2023-01-30T07:27:43.095Z,100154.04
2023-01-30T07:30:12.328Z,100151.77
2023-01-30T07:32:40.574Z,100149.54
2023-01-30T07:35:09.393Z,100149.44
2023-01-30T07:37:37.768Z,100142.56
2023-01-30T07:40:07.088Z,100140.48
2023-01-30T07:42:35.357Z,100136.30
2023-01-30T07:45:04.114Z,100130.16
2023-01-30T07:47:32.297Z,100130.40
2023-01-30T07:50:00.633Z,100130.20
2023-01-30T07:52:29.063Z,100131.67
2023-01-30T07:54:58.535Z,100126.23
2023-01-30T07:57:28.418Z,100121.10
2023-01-30T07:59:56.662Z,100118.36
2023-01-30T08:02:24.946Z,100110.24
2023-01-30T08:04:53.374Z,100102.98
2023-01-30T08:07:26.012Z,100101.08
2023-01-30T08:09:54.195Z,100099.33
2023-01-30T08:12:24.397Z,100093.23
2023-01-30T08:14:52.512Z,100084.66
2023-01-30T08:17:20.651Z,100084.56
2023-01-30T08:19:48.910Z,100089.69
2023-01-30T08:22:17.184Z,100082.55
2023-01-30T08:24:45.381Z,100078.30
2023-01-30T08:27:14.288Z,100076.34
2023-01-30T08:29:42.468Z,100066.58
2023-01-30T08:32:10.759Z,100060.58
2023-01-30T08:34:40.141Z,100055.45
2023-01-30T08:37:08.461Z,100059.80
2023-01-30T08:39:37.346Z,100053.59
2023-01-30T08:42:05.788Z,100052.81
2023-01-30T08:44:35.307Z,100045.93
2023-01-30T08:47:03.523Z,100044.98
2023-01-30T08:49:32.382Z,100034.08
2023-01-30T08:52:00.656Z,100034.05
2023-01-30T08:54:28.923Z,100026.91
2023-01-30T08:56:57.162Z,100022.89
2023-01-30T08:59:25.253Z,100019.23
2023-01-30T09:01:53.451Z,100008.41
2023-01-30T09:04:23.417Z,100014.69
2023-01-30T09:06:51.651Z,100009.52
2023-01-30T09:09:20.043Z,100005.60
2023-01-30T09:11:48.620Z,99998.04
2023-01-30T09:14:20.276Z,99991.40
2023-01-30T09:16:56.092Z,99992.16
2023-01-30T09:19:25.742Z,99987.17
2023-01-30T09:21:54.266Z,99982.84
2023-01-30T09:24:27.002Z,99982.52
2023-01-30T09:26:57.802Z,99974.23
2023-01-30T09:29:26.742Z,99974.36
2023-01-30T09:31:59.136Z,99966.59
2023-01-30T09:34:29.054Z,99964.95
2023-01-30T09:37:00.412Z,99963.98
2023-01-30T09:39:29.179Z,99965.48
2023-01-30T09:42:23.976Z,99963.16
2023-01-30T09:45:10.891Z,99955.14
2023-01-30T09:47:47.933Z,99952.48
2023-01-30T09:50:42.780Z,99950.66
2023-01-30T09:53:36.456Z,99946.23
2023-01-30T09:56:05.040Z,99940.92
2023-01-30T09:59:07.619Z,99940.35
2023-01-30T10:02:07.134Z,99935.62
2023-01-30T10:04:48.821Z,99929.16
2023-01-30T10:07:57.537Z,99928.41
2023-01-30T10:11:00.989Z,99917.85
2023-01-30T10:13:58.422Z,99907.95
2023-01-30T10:16:45.337Z,99907.09
2023-01-30T10:19:16.060Z,99899.07
2023-01-30T10:21:51.835Z,99898.80
2023-01-30T10:24:58.306Z,99898.77
2023-01-30T10:27:26.589Z,99888.70
2023-01-30T10:29:58.608Z,99883.75
2023-01-30T10:32:32.152Z,99883.02
2023-01-30T10:35:14.154Z,99874.05
2023-01-30T10:38:03.231Z,99865.42
2023-01-30T10:40:41.558Z,99860.04
2023-01-30T10:43:25.236Z,99849.25
2023-01-30T10:45:59.498Z,99848.61
2023-01-30T10:48:45.801Z,99840.48
2023-01-30T10:51:39.364Z,99828.32
2023-01-30T10:54:12.252Z,99821.83
2023-01-30T10:56:52.202Z,99809.61
2023-01-30T11:00:22.023Z,99804.60
2023-01-30T11:03:08.748Z,99796.88
2023-01-30T11:05:48.073Z,99796.69
2023-01-30T11:08:42.465Z,99791.19
2023-01-30T11:11:31.413Z,99778.90
2023-01-30T11:14:09.155Z,99774.80
2023-01-30T11:16:56.867Z,99774.52
2023-01-30T11:19:34.397Z,99765.01
2023-01-30T11:22:04.741Z,99760.33
2023-01-30T11:24:40.234Z,99752.43
2023-01-30T11:27:28.586Z,99753.20
2023-01-30T11:30:12.659Z,99745.53
2023-01-30T11:32:44.069Z,99741.16
2023-01-30T11:35:25.914Z,99739.09
2023-01-30T11:37:54.936Z,99735.69
2023-01-30T11:40:25.651Z,99729.48
2023-01-30T11:43:02.036Z,99722.58
2023-01-30T11:45:39.693Z,99717.89
2023-01-30T11:48:33.224Z,99709.20
2023-01-30T11:51:06.320Z,99705.45
2023-01-30T12:06:11.637Z,99685.13
2023-01-30T12:08:42.164Z,99680.59
2023-01-30T12:11:42.257Z,99674.23
2023-01-30T12:14:11.888Z,99674.13
2023-01-30T12:17:08.060Z,99671.23
2023-01-30T12:19:44.191Z,99665.28
2023-01-30T12:22:18.964Z,99664.62
2023-01-30T12:24:58.675Z,99660.48
2023-01-30T12:27:53.675Z,99656.61
2023-01-30T12:30:41.706Z,99646.77
2023-01-30T12:33:11.600Z,99641.98
2023-01-30T12:35:59.969Z,99642.16
2023-01-30T12:38:59.499Z,99636.84
2023-01-30T12:41:39.447Z,99638.27
2023-01-30T12:44:19.244Z,99632.20
2023-01-30T12:47:12.610Z,99636.80
2023-01-30T12:49:42.803Z,99638.92
2023-01-30T12:52:31.360Z,99636.77
2023-01-30T12:55:18.416Z,99633.39
2023-01-30T12:57:56.887Z,99631.41
2023-01-30T13:00:42.327Z,99624.59
2023-01-30T13:03:15.693Z,99626.92
2023-01-30T13:05:46.124Z,99631.73
2023-01-30T13:08:45.731Z,99623.27
2023-01-30T13:11:15.582Z,99619.23
2023-01-30T13:14:00.435Z,99614.94
2023-01-30T13:17:08.272Z,99616.67
2023-01-30T13:20:08.007Z,99617.97
2023-01-30T13:22:35.326Z,99619.54
2023-01-30T13:25:28.029Z,99620.11
2023-01-30T13:27:55.626Z,99614.98
2023-01-30T13:30:24.745Z,99611.19
2023-01-30T13:32:56.193Z,99609.63
2023-01-30T13:35:26.598Z,99605.73
2023-01-30T13:37:53.991Z,99605.60
2023-01-30T13:40:25.684Z,99600.13
2023-01-30T13:42:58.923Z,99601.80
2023-01-30T13:45:27.884Z,99601.77
2023-01-30T13:48:23.326Z,99597.70
2023-01-30T13:51:14.538Z,99592.80
2023-01-30T13:53:49.187Z,99591.36
2023-01-30T13:56:42.546Z,99592.63
2023-01-30T13:59:30.272Z,99589.59
2023-01-30T14:02:03.196Z,99582.75
2023-01-30T14:04:39.672Z,99570.81
2023-01-30T14:07:12.445Z,99566.00
2023-01-30T14:09:50.445Z,99562.48
2023-01-30T14:12:19.176Z,99559.85
2023-01-30T14:15:11.999Z,99559.19
2023-01-30T14:17:39.588Z,99560.41
2023-01-30T14:20:17.687Z,99557.23
2023-01-30T14:22:50.838Z,99554.11
2023-01-30T14:25:29.887Z,99554.48
2023-01-30T14:27:59.994Z,99546.85
2023-01-30T14:30:49.131Z,99545.05
2023-01-30T14:33:19.114Z,99542.52
2023-01-30T14:35:49.365Z,99544.05
2023-01-30T14:38:19.532Z,99545.93
2023-01-30T14:41:01.851Z,99550.91
2023-01-30T14:43:31.626Z,99546.05
2023-01-30T14:46:02.739Z,99544.52
2023-01-30T14:48:56.179Z,99537.98
2023-01-30T14:51:39.246Z,99540.70
2023-01-30T14:54:27.458Z,99539.63
2023-01-30T14:57:02.292Z,99537.29
2023-01-30T14:59:34.922Z,99538.12
2023-01-30T15:02:02.202Z,99531.64
2023-01-30T15:04:53.521Z,99530.11
2023-01-30T15:07:45.983Z,99527.66
2023-01-30T15:10:16.118Z,99522.16
2023-01-30T15:12:51.284Z,99522.42
2023-01-30T15:15:30.531Z,99521.29
2023-01-30T15:18:19.525Z,99523.68
2023-01-30T15:21:04.788Z,99518.48
2023-01-30T15:23:55.105Z,99516.36
2023-01-30T15:26:43.431Z,99515.95
2023-01-30T15:29:48.697Z,99516.21
2023-01-30T15:32:20.467Z,99512.64
2023-01-30T15:34:50.146Z,99511.55
2023-01-30T15:37:31.058Z,99512.84
2023-01-30T15:40:21.820Z,99514.14
2023-01-30T15:43:04.016Z,99520.88
2023-01-30T15:45:50.646Z,99522.80
2023-01-30T15:49:15.954Z,99516.54
2023-01-30T15:51:43.092Z,99510.40
2023-01-30T15:54:16.613Z,99504.66
2023-01-30T15:56:44.493Z,99506.89
2023-01-30T15:59:21.717Z,99510.92
2023-01-30T16:02:01.648Z,99515.50
2023-01-30T16:04:29.446Z,99513.40
2023-01-30T16:06:56.246Z,99510.03
2023-01-30T16:09:23.953Z,99506.50
2023-01-30T16:11:50.925Z,99504.52
2023-01-30T16:14:19.131Z,99504.48
2023-01-30T16:16:58.223Z,99505.98
2023-01-30T16:19:36.985Z,99509.79
2023-01-30T16:22:05.607Z,99511.36
2023-01-30T16:24:33.833Z,99512.08
2023-01-30T16:27:06.090Z,99507.53
2023-01-30T16:29:35.688Z,99502.91
2023-01-30T16:32:11.262Z,99500.23
2023-01-30T16:34:39.497Z,99498.51
2023-01-30T16:37:16.316Z,99501.38
2023-01-30T16:39:45.911Z,99494.39
2023-01-30T16:42:18.781Z,99491.02
2023-01-30T16:44:45.653Z,99487.63
2023-01-30T16:47:26.612Z,99482.78
2023-01-30T16:49:54.373Z,99482.25
2023-01-30T16:52:44.649Z,99477.04
2023-01-30T16:55:22.857Z,99476.54
2023-01-30T16:57:58.059Z,99470.25
2023-01-30T17:00:26.207Z,99474.52
2023-01-30T17:02:55.318Z,99475.15
2023-01-30T17:05:26.827Z,99480.42
2023-01-30T17:07:55.321Z,99483.31
2023-01-30T17:10:28.239Z,99483.54
2023-01-30T17:12:55.798Z,99478.20
2023-01-30T17:15:26.572Z,99483.25
2023-01-30T17:17:55.446Z,99484.19
2023-01-30T17:20:22.295Z,99483.23
2023-01-30T17:22:51.933Z,99481.90
2023-01-30T17:25:37.701Z,99478.79
2023-01-30T17:28:07.829Z,99481.58
2023-01-30T17:30:35.393Z,99482.28
2023-01-30T17:33:02.281Z,99479.48
2023-01-30T17:35:29.781Z,99480.60
2023-01-30T17:38:05.219Z,99481.58
2023-01-30T17:40:35.255Z,99480.64
2023-01-30T17:43:02.283Z,99478.95
2023-01-30T17:45:29.700Z,99474.54
2023-01-30T17:47:56.663Z,99472.56
2023-01-30T17:50:23.702Z,99469.71
2023-01-30T17:52:50.796Z,99472.89
2023-01-30T17:55:19.502Z,99469.52
2023-01-30T17:57:52.702Z,99464.74
2023-01-30T18:00:21.089Z,99466.67
2023-01-30T18:02:49.013Z,99471.55
2023-01-30T18:05:21.701Z,99479.20
2023-01-30T18:07:49.414Z,99484.81
2023-01-30T18:10:19.149Z,99483.23
2023-01-30T18:12:48.029Z,99479.20
2023-01-30T18:15:15.889Z,99476.45
2023-01-30T18:17:48.130Z,99472.33
2023-01-30T18:20:19.710Z,99465.63
2023-01-30T18:22:53.344Z,99465.18
2023-01-30T18:25:27.489Z,99461.69
2023-01-30T18:27:54.791Z,99457.91
2023-01-30T18:30:24.620Z,99461.13
2023-01-30T18:32:53.288Z,99466.98
2023-01-30T18:35:22.438Z,99469.72
2023-01-30T18:37:49.877Z,99468.92
2023-01-30T18:40:18.231Z,99467.45
2023-01-30T18:42:46.401Z,99470.75
2023-01-30T18:45:13.333Z,99467.09
2023-01-30T18:47:41.996Z,99463.70
2023-01-30T18:50:10.074Z,99461.36
2023-01-30T18:52:37.110Z,99452.95
2023-01-30T18:55:04.417Z,99452.19
2023-01-30T18:57:31.951Z,99450.36
2023-01-30T18:59:58.874Z,99449.16
2023-01-30T19:02:26.393Z,99451.48
2023-01-30T19:04:53.193Z,99450.58
2023-01-30T19:07:20.348Z,99450.34
2023-01-30T19:09:47.256Z,99449.09
2023-01-30T19:12:32.730Z,99443.79
2023-01-30T19:15:01.034Z,99439.76
2023-01-30T19:17:28.909Z,99439.41
2023-01-30T19:19:56.934Z,99433.02
2023-01-30T19:22:24.027Z,99434.41
2023-01-30T19:24:51.288Z,99430.62
2023-01-30T19:27:18.341Z,99427.35
2023-01-30T19:29:45.322Z,99425.97
2023-01-30T19:32:12.383Z,99421.35
2023-01-30T19:34:40.539Z,99415.71
2023-01-30T19:37:07.803Z,99411.05
2023-01-30T19:39:35.245Z,99415.71
2023-01-30T19:42:02.319Z,99415.88
2023-01-30T19:44:29.346Z,99418.95
2023-01-30T20:00:41.441Z,99408.33
2023-01-30T20:03:13.081Z,99411.80
2023-01-30T20:05:41.646Z,99412.52
2023-01-30T20:08:21.828Z,99417.27
2023-01-30T20:11:04.278Z,99419.67
2023-01-30T20:13:36.775Z,99421.60
2023-01-30T20:16:10.523Z,99422.86
2023-01-30T20:18:38.984Z,99418.00
2023-01-30T20:21:11.480Z,99418.55
2023-01-30T20:23:44.859Z,99417.50
2023-01-30T20:26:15.009Z,99415.42
2023-01-30T20:28:43.574Z,99413.36
2023-01-30T20:31:20.488Z,99416.75
2023-01-30T20:33:49.276Z,99415.33
2023-01-30T20:36:19.013Z,99419.41
2023-01-30T20:38:49.629Z,99417.55
2023-01-30T20:41:20.157Z,99417.70
2023-01-30T20:43:51.262Z,99418.17
2023-01-30T20:46:22.701Z,99419.52
2023-01-30T20:48:54.448Z,99416.54
2023-01-30T20:51:30.768Z,99415.64
2023-01-30T20:54:00.629Z,99420.88
2023-01-30T20:56:36.488Z,99420.71
2023-01-30T20:59:06.168Z,99423.05
2023-01-30T21:01:35.372Z,99424.45
2023-01-30T21:04:08.382Z,99419.63
2023-01-30T21:06:44.078Z,99418.86
2023-01-30T21:09:16.299Z,99419.30
2023-01-30T21:11:46.062Z,99419.00
2023-01-30T21:14:16.060Z,99422.12
2023-01-30T21:16:44.746Z,99422.06
2023-01-30T21:19:16.237Z,99423.55
2023-01-30T21:21:53.624Z,99419.48
2023-01-30T21:24:27.515Z,99417.91
2023-01-30T21:26:55.961Z,99412.29
2023-01-30T21:29:26.459Z,99410.31
2023-01-30T21:31:55.797Z,99413.48
2023-01-30T21:34:24.225Z,99403.13
2023-01-30T21:37:15.382Z,99406.81
2023-01-30T21:40:02.392Z,99406.54
2023-01-30T21:42:49.816Z,99405.60
2023-01-30T21:45:21.200Z,99404.81
2023-01-30T21:47:51.588Z,99406.45
2023-01-30T21:50:20.617Z,99404.52
2023-01-30T21:52:49.021Z,99403.08
2023-01-30T21:55:18.034Z,99396.74
2023-01-30T21:57:46.505Z,99402.23
2023-01-30T22:00:15.076Z,99396.52
2023-01-30T22:02:44.452Z,99390.89
2023-01-30T22:05:12.709Z,99390.79
2023-01-30T22:07:42.495Z,99390.24
2023-01-30T22:10:11.325Z,99392.14
2023-01-30T22:12:41.992Z,99392.67
2023-01-30T22:15:10.725Z,99396.71
2023-01-30T22:17:39.959Z,99391.44
2023-01-30T22:20:10.262Z,99387.23
2023-01-30T22:22:38.682Z,99387.14
2023-01-30T22:25:11.842Z,99389.38
2023-01-30T22:27:40.238Z,99389.41
2023-01-30T22:30:09.745Z,99388.13
2023-01-30T22:32:40.584Z,99388.30
2023-01-30T22:35:08.876Z,99385.30
2023-01-30T22:37:37.330Z,99384.10
2023-01-30T22:40:06.422Z,99385.65
2023-01-30T22:42:35.277Z,99386.69
2023-01-30T22:45:04.300Z,99387.40
2023-01-30T22:47:32.594Z,99386.71
2023-01-30T22:50:01.201Z,99388.05
2023-01-30T22:52:30.035Z,99385.85
2023-01-30T22:54:58.195Z,99387.95
2023-01-30T22:57:26.790Z,99384.60
2023-01-30T22:59:55.229Z,99382.05
2023-01-30T23:02:23.698Z,99378.13
2023-01-30T23:04:52.180Z,99372.63
2023-01-30T23:07:22.337Z,99372.50
2023-01-30T23:09:50.924Z,99373.59
2023-01-30T23:12:37.946Z,99379.19
2023-01-30T23:15:07.005Z,99373.02
2023-01-30T23:18:10.755Z,99368.21
2023-01-30T23:20:39.142Z,99364.13
2023-01-30T23:23:07.423Z,99364.45
2023-01-30T23:25:40.348Z,99362.71
2023-01-30T23:28:09.132Z,99363.84
2023-01-30T23:30:40.619Z,99363.52
2023-01-30T23:33:09.805Z,99364.11
2023-01-30T23:35:38.025Z,99363.20
2023-01-30T23:38:22.268Z,99361.52
2023-01-30T23:40:50.959Z,99362.50
2023-01-30T23:43:19.503Z,99358.45
2023-01-30T23:45:47.763Z,99363.40
2023-01-30T23:48:16.428Z,99367.14
2023-01-30T23:50:44.918Z,99368.92
2023-01-30T23:53:13.166Z,99366.48
2023-01-30T23:55:50.953Z,99357.50
2023-01-30T23:58:19.352Z,99358.82
